sensor_id;sensor_type;location;lat;lon;timestamp;P1;durP1;ratioP1;P2;durP2;ratioP2
67378;SDS011;54262;44.642;-0.974;2023-09-30T00:00:16;8.82;;;7.93;;
67378;SDS011;54262;44.642;-0.974;2023-09-30T00:02:42;10.85;;;8.60;;
67378;SDS011;54262;44.642;-0.974;2023-09-30T00:05:08;10.07;;;8.02;;
67378;SDS011;54262;44.642;-0.974;2023-09-30T00:07:35;12.52;;;8.88;;
67378;SDS011;54262;44.642;-0.974;2023-09-30T00:10:01;8.40;;;7.55;;
67378;SDS011;54262;44.642;-0.974;2023-09-30T00:12:30;12.35;;;8.60;;
67378;SDS011;54262;44.642;-0.974;2023-09-30T00:14:58;8.30;;;7.60;;
67378;SDS011;54262;44.642;-0.974;2023-09-30T00:17:24;11.23;;;7.30;;
67378;SDS011;54262;44.642;-0.974;2023-09-30T00:19:49;12.93;;;7.93;;
67378;SDS011;54262;44.642;-0.974;2023-09-30T00:22:15;9.93;;;8.38;;
67378;SDS011;54262;44.642;-0.974;2023-09-30T00:24:41;12.52;;;7.68;;
67378;SDS011;54262;44.642;-0.974;2023-09-30T00:27:06;9.65;;;7.80;;
67378;SDS011;54262;44.642;-0.974;2023-09-30T00:29:32;9.43;;;7.78;;
67378;SDS011;54262;44.642;-0.974;2023-09-30T00:31:58;8.38;;;7.45;;
67378;SDS011;54262;44.642;-0.974;2023-09-30T00:34:24;10.95;;;7.72;;
67378;SDS011;54262;44.642;-0.974;2023-09-30T00:36:50;11.38;;;8.45;;
67378;SDS011;54262;44.642;-0.974;2023-09-30T00:39:15;10.23;;;8.07;;
67378;SDS011;54262;44.642;-0.974;2023-09-30T00:41:41;10.55;;;7.53;;
67378;SDS011;54262;44.642;-0.974;2023-09-30T00:44:07;10.20;;;7.55;;
67378;SDS011;54262;44.642;-0.974;2023-09-30T00:46:33;8.70;;;7.43;;
67378;SDS011;54262;44.642;-0.974;2023-09-30T00:49:02;10.65;;;7.57;;
67378;SDS011;54262;44.642;-0.974;2023-09-30T00:51:28;10.68;;;7.68;;
67378;SDS011;54262;44.642;-0.974;2023-09-30T00:53:57;9.18;;;8.23;;
67378;SDS011;54262;44.642;-0.974;2023-09-30T00:56:25;8.40;;;7.57;;
67378;SDS011;54262;44.642;-0.974;2023-09-30T00:58:53;9.40;;;8.10;;
67378;SDS011;54262;44.642;-0.974;2023-09-30T01:01:22;8.93;;;7.60;;
67378;SDS011;54262;44.642;-0.974;2023-09-30T01:03:48;9.90;;;7.63;;
67378;SDS011;54262;44.642;-0.974;2023-09-30T01:06:14;9.10;;;7.95;;
67378;SDS011;54262;44.642;-0.974;2023-09-30T01:08:40;8.27;;;7.47;;
67378;SDS011;54262;44.642;-0.974;2023-09-30T01:11:06;11.40;;;8.63;;
67378;SDS011;54262;44.642;-0.974;2023-09-30T01:13:35;8.95;;;8.05;;
67378;SDS011;54262;44.642;-0.974;2023-09-30T01:16:06;9.10;;;8.15;;
67378;SDS011;54262;44.642;-0.974;2023-09-30T01:18:34;12.98;;;8.20;;
67378;SDS011;54262;44.642;-0.974;2023-09-30T01:21:04;10.43;;;7.68;;
67378;SDS011;54262;44.642;-0.974;2023-09-30T01:23:31;9.55;;;8.07;;
67378;SDS011;54262;44.642;-0.974;2023-09-30T01:25:57;8.73;;;7.35;;
67378;SDS011;54262;44.642;-0.974;2023-09-30T01:28:24;9.02;;;7.53;;
67378;SDS011;54262;44.642;-0.974;2023-09-30T01:30:49;8.82;;;7.68;;
67378;SDS011;54262;44.642;-0.974;2023-09-30T01:33:16;9.10;;;7.25;;
67378;SDS011;54262;44.642;-0.974;2023-09-30T01:35:41;10.30;;;7.05;;
67378;SDS011;54262;44.642;-0.974;2023-09-30T01:38:07;10.05;;;7.47;;
67378;SDS011;54262;44.642;-0.974;2023-09-30T01:40:33;8.20;;;7.40;;
67378;SDS011;54262;44.642;-0.974;2023-09-30T01:42:58;8.30;;;7.18;;
67378;SDS011;54262;44.642;-0.974;2023-09-30T01:45:24;8.15;;;7.35;;
67378;SDS011;54262;44.642;-0.974;2023-09-30T01:47:51;7.57;;;6.88;;
67378;SDS011;54262;44.642;-0.974;2023-09-30T01:50:16;8.48;;;7.55;;
67378;SDS011;54262;44.642;-0.974;2023-09-30T01:52:42;8.32;;;7.53;;
67378;SDS011;54262;44.642;-0.974;2023-09-30T01:55:08;8.25;;;7.47;;
67378;SDS011;54262;44.642;-0.974;2023-09-30T01:57:33;8.35;;;7.50;;
67378;SDS011;54262;44.642;-0.974;2023-09-30T01:59:59;9.93;;;7.93;;
67378;SDS011;54262;44.642;-0.974;2023-09-30T02:02:25;8.25;;;7.45;;
67378;SDS011;54262;44.642;-0.974;2023-09-30T02:04:51;7.85;;;6.75;;
67378;SDS011;54262;44.642;-0.974;2023-09-30T02:07:18;7.55;;;6.78;;
67378;SDS011;54262;44.642;-0.974;2023-09-30T02:09:44;10.88;;;6.97;;
67378;SDS011;54262;44.642;-0.974;2023-09-30T02:12:10;8.50;;;7.60;;
67378;SDS011;54262;44.642;-0.974;2023-09-30T02:14:38;8.15;;;7.32;;
67378;SDS011;54262;44.642;-0.974;2023-09-30T02:17:05;8.52;;;7.10;;
67378;SDS011;54262;44.642;-0.974;2023-09-30T02:19:31;8.32;;;7.53;;
67378;SDS011;54262;44.642;-0.974;2023-09-30T02:21:59;7.65;;;6.85;;
67378;SDS011;54262;44.642;-0.974;2023-09-30T02:24:25;8.10;;;7.30;;
67378;SDS011;54262;44.642;-0.974;2023-09-30T02:26:50;8.90;;;7.60;;
67378;SDS011;54262;44.642;-0.974;2023-09-30T02:29:16;10.68;;;7.63;;
67378;SDS011;54262;44.642;-0.974;2023-09-30T02:31:42;9.25;;;7.00;;
67378;SDS011;54262;44.642;-0.974;2023-09-30T02:34:07;10.35;;;7.28;;
67378;SDS011;54262;44.642;-0.974;2023-09-30T02:36:33;9.27;;;7.25;;
67378;SDS011;54262;44.642;-0.974;2023-09-30T02:39:05;7.50;;;6.72;;
67378;SDS011;54262;44.642;-0.974;2023-09-30T02:41:33;8.55;;;7.32;;
67378;SDS011;54262;44.642;-0.974;2023-09-30T02:43:59;10.60;;;7.80;;
67378;SDS011;54262;44.642;-0.974;2023-09-30T02:46:25;9.85;;;7.28;;
67378;SDS011;54262;44.642;-0.974;2023-09-30T02:48:53;8.48;;;7.35;;
67378;SDS011;54262;44.642;-0.974;2023-09-30T02:51:19;7.80;;;7.10;;
67378;SDS011;54262;44.642;-0.974;2023-09-30T02:53:44;7.80;;;6.93;;
67378;SDS011;54262;44.642;-0.974;2023-09-30T02:56:11;8.43;;;7.13;;
67378;SDS011;54262;44.642;-0.974;2023-09-30T02:58:37;8.77;;;6.75;;
67378;SDS011;54262;44.642;-0.974;2023-09-30T03:01:03;8.00;;;6.93;;
67378;SDS011;54262;44.642;-0.974;2023-09-30T03:03:29;8.30;;;7.45;;
67378;SDS011;54262;44.642;-0.974;2023-09-30T03:05:56;9.05;;;7.78;;
67378;SDS011;54262;44.642;-0.974;2023-09-30T03:08:22;7.55;;;6.78;;
67378;SDS011;54262;44.642;-0.974;2023-09-30T03:10:50;8.32;;;7.40;;
67378;SDS011;54262;44.642;-0.974;2023-09-30T03:13:15;8.77;;;7.82;;
67378;SDS011;54262;44.642;-0.974;2023-09-30T03:15:46;8.68;;;7.85;;
67378;SDS011;54262;44.642;-0.974;2023-09-30T03:18:14;9.35;;;7.53;;
67378;SDS011;54262;44.642;-0.974;2023-09-30T03:20:42;6.90;;;6.30;;
67378;SDS011;54262;44.642;-0.974;2023-09-30T03:23:08;7.05;;;6.35;;
67378;SDS011;54262;44.642;-0.974;2023-09-30T03:25:35;8.32;;;7.53;;
67378;SDS011;54262;44.642;-0.974;2023-09-30T03:28:01;8.15;;;7.35;;
67378;SDS011;54262;44.642;-0.974;2023-09-30T03:30:27;7.47;;;6.88;;
67378;SDS011;54262;44.642;-0.974;2023-09-30T03:32:54;8.38;;;7.15;;
67378;SDS011;54262;44.642;-0.974;2023-09-30T03:35:20;7.30;;;6.53;;
67378;SDS011;54262;44.642;-0.974;2023-09-30T03:37:46;7.15;;;6.38;;
67378;SDS011;54262;44.642;-0.974;2023-09-30T03:40:13;10.05;;;7.20;;
67378;SDS011;54262;44.642;-0.974;2023-09-30T03:42:43;9.90;;;7.75;;
67378;SDS011;54262;44.642;-0.974;2023-09-30T03:45:10;7.35;;;6.72;;
67378;SDS011;54262;44.642;-0.974;2023-09-30T03:47:36;8.05;;;7.25;;
67378;SDS011;54262;44.642;-0.974;2023-09-30T03:50:03;7.20;;;6.47;;
67378;SDS011;54262;44.642;-0.974;2023-09-30T03:52:33;7.05;;;6.45;;
67378;SDS011;54262;44.642;-0.974;2023-09-30T03:54:59;8.80;;;7.95;;
67378;SDS011;54262;44.642;-0.974;2023-09-30T03:57:30;7.88;;;7.15;;
67378;SDS011;54262;44.642;-0.974;2023-09-30T04:00:02;8.70;;;6.50;;
67378;SDS011;54262;44.642;-0.974;2023-09-30T04:02:31;8.68;;;7.05;;
67378;SDS011;54262;44.642;-0.974;2023-09-30T04:04:57;8.88;;;7.03;;
67378;SDS011;54262;44.642;-0.974;2023-09-30T04:07:24;7.82;;;7.03;;
67378;SDS011;54262;44.642;-0.974;2023-09-30T04:09:53;9.32;;;8.18;;
67378;SDS011;54262;44.642;-0.974;2023-09-30T04:12:19;7.18;;;6.57;;
67378;SDS011;54262;44.642;-0.974;2023-09-30T04:14:45;7.13;;;6.38;;
67378;SDS011;54262;44.642;-0.974;2023-09-30T04:17:13;8.05;;;6.72;;
67378;SDS011;54262;44.642;-0.974;2023-09-30T04:19:41;7.55;;;6.32;;
67378;SDS011;54262;44.642;-0.974;2023-09-30T04:22:06;7.43;;;6.72;;
67378;SDS011;54262;44.642;-0.974;2023-09-30T04:24:33;7.55;;;6.70;;
67378;SDS011;54262;44.642;-0.974;2023-09-30T04:26:59;9.57;;;7.40;;
67378;SDS011;54262;44.642;-0.974;2023-09-30T04:29:28;9.75;;;7.43;;
67378;SDS011;54262;44.642;-0.974;2023-09-30T04:31:54;7.47;;;6.75;;
67378;SDS011;54262;44.642;-0.974;2023-09-30T04:34:21;8.18;;;6.97;;
67378;SDS011;54262;44.642;-0.974;2023-09-30T04:36:47;7.22;;;6.53;;
67378;SDS011;54262;44.642;-0.974;2023-09-30T04:39:12;8.30;;;6.97;;
67378;SDS011;54262;44.642;-0.974;2023-09-30T04:41:39;9.32;;;7.03;;
67378;SDS011;54262;44.642;-0.974;2023-09-30T04:44:06;9.50;;;6.90;;
67378;SDS011;54262;44.642;-0.974;2023-09-30T04:46:35;7.57;;;6.70;;
67378;SDS011;54262;44.642;-0.974;2023-09-30T04:49:05;7.57;;;6.65;;
67378;SDS011;54262;44.642;-0.974;2023-09-30T04:51:34;9.20;;;7.25;;
67378;SDS011;54262;44.642;-0.974;2023-09-30T04:54:00;8.18;;;7.32;;
67378;SDS011;54262;44.642;-0.974;2023-09-30T04:56:27;7.00;;;6.40;;
67378;SDS011;54262;44.642;-0.974;2023-09-30T04:58:53;7.28;;;6.57;;
67378;SDS011;54262;44.642;-0.974;2023-09-30T05:01:18;8.05;;;7.30;;
67378;SDS011;54262;44.642;-0.974;2023-09-30T05:03:44;8.70;;;6.63;;
67378;SDS011;54262;44.642;-0.974;2023-09-30T05:06:13;6.82;;;6.20;;
67378;SDS011;54262;44.642;-0.974;2023-09-30T05:08:39;10.23;;;7.60;;
67378;SDS011;54262;44.642;-0.974;2023-09-30T05:11:05;9.32;;;6.72;;
67378;SDS011;54262;44.642;-0.974;2023-09-30T05:13:30;7.35;;;6.65;;
67378;SDS011;54262;44.642;-0.974;2023-09-30T05:15:58;6.70;;;6.10;;
67378;SDS011;54262;44.642;-0.974;2023-09-30T05:18:27;7.25;;;6.60;;
67378;SDS011;54262;44.642;-0.974;2023-09-30T05:20:55;7.63;;;6.80;;
67378;SDS011;54262;44.642;-0.974;2023-09-30T05:23:21;7.22;;;6.53;;
67378;SDS011;54262;44.642;-0.974;2023-09-30T05:25:47;12.65;;;7.32;;
67378;SDS011;54262;44.642;-0.974;2023-09-30T05:28:15;7.55;;;6.35;;
67378;SDS011;54262;44.642;-0.974;2023-09-30T05:30:41;7.45;;;6.78;;
67378;SDS011;54262;44.642;-0.974;2023-09-30T05:33:08;7.25;;;6.28;;
67378;SDS011;54262;44.642;-0.974;2023-09-30T05:35:39;7.82;;;6.50;;
67378;SDS011;54262;44.642;-0.974;2023-09-30T05:38:08;7.47;;;6.78;;
67378;SDS011;54262;44.642;-0.974;2023-09-30T05:40:33;8.10;;;7.30;;
67378;SDS011;54262;44.642;-0.974;2023-09-30T05:42:59;7.10;;;6.38;;
67378;SDS011;54262;44.642;-0.974;2023-09-30T05:45:26;8.77;;;6.88;;
67378;SDS011;54262;44.642;-0.974;2023-09-30T05:47:53;7.53;;;6.93;;
67378;SDS011;54262;44.642;-0.974;2023-09-30T05:50:21;7.25;;;6.63;;
67378;SDS011;54262;44.642;-0.974;2023-09-30T05:52:51;6.30;;;5.72;;
67378;SDS011;54262;44.642;-0.974;2023-09-30T05:55:18;7.18;;;6.50;;
67378;SDS011;54262;44.642;-0.974;2023-09-30T05:57:50;7.80;;;6.68;;
67378;SDS011;54262;44.642;-0.974;2023-09-30T06:00:17;7.80;;;7.10;;
67378;SDS011;54262;44.642;-0.974;2023-09-30T06:02:47;7.22;;;6.63;;
67378;SDS011;54262;44.642;-0.974;2023-09-30T06:05:13;9.18;;;6.85;;
67378;SDS011;54262;44.642;-0.974;2023-09-30T06:07:41;9.13;;;6.90;;
67378;SDS011;54262;44.642;-0.974;2023-09-30T06:10:10;6.95;;;6.25;;
67378;SDS011;54262;44.642;-0.974;2023-09-30T06:12:36;8.55;;;6.38;;
67378;SDS011;54262;44.642;-0.974;2023-09-30T06:15:02;7.53;;;6.82;;
67378;SDS011;54262;44.642;-0.974;2023-09-30T06:17:28;7.63;;;6.82;;
67378;SDS011;54262;44.642;-0.974;2023-09-30T06:19:56;8.77;;;6.45;;
67378;SDS011;54262;44.642;-0.974;2023-09-30T06:22:30;7.40;;;6.38;;
67378;SDS011;54262;44.642;-0.974;2023-09-30T06:24:56;6.90;;;6.28;;
67378;SDS011;54262;44.642;-0.974;2023-09-30T06:27:22;7.35;;;6.68;;
67378;SDS011;54262;44.642;-0.974;2023-09-30T06:29:47;6.55;;;6.03;;
67378;SDS011;54262;44.642;-0.974;2023-09-30T06:32:13;7.15;;;5.93;;
67378;SDS011;54262;44.642;-0.974;2023-09-30T06:34:40;7.75;;;7.07;;
67378;SDS011;54262;44.642;-0.974;2023-09-30T06:37:06;7.13;;;6.43;;
67378;SDS011;54262;44.642;-0.974;2023-09-30T06:39:33;7.25;;;6.65;;
67378;SDS011;54262;44.642;-0.974;2023-09-30T06:41:59;8.10;;;6.95;;
67378;SDS011;54262;44.642;-0.974;2023-09-30T06:44:25;7.22;;;6.53;;
67378;SDS011;54262;44.642;-0.974;2023-09-30T06:46:50;8.52;;;7.07;;
67378;SDS011;54262;44.642;-0.974;2023-09-30T06:49:16;7.32;;;6.75;;
67378;SDS011;54262;44.642;-0.974;2023-09-30T06:51:42;7.43;;;6.80;;
67378;SDS011;54262;44.642;-0.974;2023-09-30T06:54:08;7.97;;;6.28;;
67378;SDS011;54262;44.642;-0.974;2023-09-30T06:56:34;7.63;;;6.28;;
67378;SDS011;54262;44.642;-0.974;2023-09-30T06:58:59;7.20;;;6.50;;
67378;SDS011;54262;44.642;-0.974;2023-09-30T07:01:26;7.22;;;6.63;;
67378;SDS011;54262;44.642;-0.974;2023-09-30T07:03:52;6.95;;;6.30;;
67378;SDS011;54262;44.642;-0.974;2023-09-30T07:06:24;8.30;;;6.00;;
67378;SDS011;54262;44.642;-0.974;2023-09-30T07:08:50;7.45;;;6.18;;
67378;SDS011;54262;44.642;-0.974;2023-09-30T07:11:16;6.97;;;6.28;;
67378;SDS011;54262;44.642;-0.974;2023-09-30T07:13:42;7.15;;;6.55;;
67378;SDS011;54262;44.642;-0.974;2023-09-30T07:16:07;8.45;;;6.35;;
67378;SDS011;54262;44.642;-0.974;2023-09-30T07:18:33;8.70;;;6.72;;
67378;SDS011;54262;44.642;-0.974;2023-09-30T07:21:01;7.40;;;6.70;;
67378;SDS011;54262;44.642;-0.974;2023-09-30T07:23:30;7.32;;;6.57;;
67378;SDS011;54262;44.642;-0.974;2023-09-30T07:25:56;7.15;;;6.53;;
67378;SDS011;54262;44.642;-0.974;2023-09-30T07:28:22;6.72;;;6.07;;
67378;SDS011;54262;44.642;-0.974;2023-09-30T07:30:48;9.88;;;6.85;;
67378;SDS011;54262;44.642;-0.974;2023-09-30T07:33:16;8.73;;;7.20;;
67378;SDS011;54262;44.642;-0.974;2023-09-30T07:35:42;7.80;;;6.80;;
67378;SDS011;54262;44.642;-0.974;2023-09-30T07:38:07;6.55;;;5.88;;
67378;SDS011;54262;44.642;-0.974;2023-09-30T07:40:33;7.20;;;6.35;;
67378;SDS011;54262;44.642;-0.974;2023-09-30T07:42:59;8.48;;;7.60;;
67378;SDS011;54262;44.642;-0.974;2023-09-30T07:45:25;7.32;;;6.70;;
67378;SDS011;54262;44.642;-0.974;2023-09-30T07:47:51;7.65;;;6.78;;
67378;SDS011;54262;44.642;-0.974;2023-09-30T07:50:16;8.32;;;7.15;;
67378;SDS011;54262;44.642;-0.974;2023-09-30T07:52:42;7.70;;;6.70;;
67378;SDS011;54262;44.642;-0.974;2023-09-30T07:55:09;8.15;;;6.85;;
67378;SDS011;54262;44.642;-0.974;2023-09-30T07:57:34;7.00;;;6.30;;
67378;SDS011;54262;44.642;-0.974;2023-09-30T08:00:01;10.55;;;7.68;;
67378;SDS011;54262;44.642;-0.974;2023-09-30T08:02:32;7.65;;;6.85;;
67378;SDS011;54262;44.642;-0.974;2023-09-30T08:04:58;9.15;;;7.10;;
67378;SDS011;54262;44.642;-0.974;2023-09-30T08:07:27;8.45;;;6.43;;
67378;SDS011;54262;44.642;-0.974;2023-09-30T08:09:52;11.27;;;7.75;;
67378;SDS011;54262;44.642;-0.974;2023-09-30T08:12:18;9.48;;;6.82;;
67378;SDS011;54262;44.642;-0.974;2023-09-30T08:14:44;7.95;;;5.95;;
67378;SDS011;54262;44.642;-0.974;2023-09-30T08:17:10;7.75;;;7.05;;
67378;SDS011;54262;44.642;-0.974;2023-09-30T08:19:36;7.82;;;6.63;;
67378;SDS011;54262;44.642;-0.974;2023-09-30T08:22:04;6.60;;;6.00;;
67378;SDS011;54262;44.642;-0.974;2023-09-30T08:24:32;7.35;;;6.00;;
67378;SDS011;54262;44.642;-0.974;2023-09-30T08:26:57;6.63;;;6.07;;
67378;SDS011;54262;44.642;-0.974;2023-09-30T08:29:23;10.15;;;7.00;;
67378;SDS011;54262;44.642;-0.974;2023-09-30T08:31:49;6.03;;;5.43;;
67378;SDS011;54262;44.642;-0.974;2023-09-30T08:34:17;6.55;;;5.85;;
67378;SDS011;54262;44.642;-0.974;2023-09-30T08:36:46;6.90;;;6.38;;
67378;SDS011;54262;44.642;-0.974;2023-09-30T08:39:11;8.00;;;6.95;;
67378;SDS011;54262;44.642;-0.974;2023-09-30T08:41:37;8.68;;;5.80;;
67378;SDS011;54262;44.642;-0.974;2023-09-30T08:44:03;7.22;;;6.55;;
67378;SDS011;54262;44.642;-0.974;2023-09-30T08:46:30;7.10;;;6.38;;
67378;SDS011;54262;44.642;-0.974;2023-09-30T08:49:00;5.75;;;5.25;;
67378;SDS011;54262;44.642;-0.974;2023-09-30T08:51:28;6.65;;;5.95;;
67378;SDS011;54262;44.642;-0.974;2023-09-30T08:53:55;8.65;;;6.30;;
67378;SDS011;54262;44.642;-0.974;2023-09-30T08:56:31;12.45;;;6.40;;
67378;SDS011;54262;44.642;-0.974;2023-09-30T08:59:01;7.30;;;6.60;;
67378;SDS011;54262;44.642;-0.974;2023-09-30T09:01:28;12.95;;;6.72;;
67378;SDS011;54262;44.642;-0.974;2023-09-30T09:03:55;10.85;;;6.75;;
67378;SDS011;54262;44.642;-0.974;2023-09-30T09:06:22;8.85;;;5.93;;
67378;SDS011;54262;44.642;-0.974;2023-09-30T09:08:49;9.00;;;6.45;;
67378;SDS011;54262;44.642;-0.974;2023-09-30T09:11:16;12.25;;;6.80;;
67378;SDS011;54262;44.642;-0.974;2023-09-30T09:13:49;15.85;;;6.90;;
67378;SDS011;54262;44.642;-0.974;2023-09-30T09:16:21;8.57;;;5.90;;
67378;SDS011;54262;44.642;-0.974;2023-09-30T09:18:48;12.90;;;6.90;;
67378;SDS011;54262;44.642;-0.974;2023-09-30T09:21:20;9.50;;;6.10;;
67378;SDS011;54262;44.642;-0.974;2023-09-30T09:23:54;11.77;;;6.20;;
67378;SDS011;54262;44.642;-0.974;2023-09-30T09:26:23;9.02;;;6.40;;
67378;SDS011;54262;44.642;-0.974;2023-09-30T09:28:50;9.80;;;5.95;;
67378;SDS011;54262;44.642;-0.974;2023-09-30T09:31:28;13.27;;;6.35;;
67378;SDS011;54262;44.642;-0.974;2023-09-30T09:33:55;13.02;;;5.95;;
67378;SDS011;54262;44.642;-0.974;2023-09-30T09:36:37;13.05;;;7.05;;
67378;SDS011;54262;44.642;-0.974;2023-09-30T09:39:11;11.80;;;5.47;;
67378;SDS011;54262;44.642;-0.974;2023-09-30T09:41:51;8.52;;;5.63;;
67378;SDS011;54262;44.642;-0.974;2023-09-30T09:44:21;11.23;;;6.60;;
67378;SDS011;54262;44.642;-0.974;2023-09-30T09:46:47;6.43;;;5.82;;
67378;SDS011;54262;44.642;-0.974;2023-09-30T09:49:18;6.88;;;6.13;;
67378;SDS011;54262;44.642;-0.974;2023-09-30T09:51:48;6.28;;;5.55;;
67378;SDS011;54262;44.642;-0.974;2023-09-30T09:54:14;7.57;;;5.75;;
67378;SDS011;54262;44.642;-0.974;2023-09-30T09:56:43;12.45;;;6.28;;
67378;SDS011;54262;44.642;-0.974;2023-09-30T09:59:10;6.70;;;5.20;;
67378;SDS011;54262;44.642;-0.974;2023-09-30T10:01:36;7.13;;;5.30;;
67378;SDS011;54262;44.642;-0.974;2023-09-30T10:04:04;7.97;;;5.55;;
67378;SDS011;54262;44.642;-0.974;2023-09-30T10:06:31;6.78;;;5.00;;
67378;SDS011;54262;44.642;-0.974;2023-09-30T10:09:03;7.38;;;5.30;;
67378;SDS011;54262;44.642;-0.974;2023-09-30T10:11:32;9.38;;;5.28;;
67378;SDS011;54262;44.642;-0.974;2023-09-30T10:13:59;6.18;;;4.30;;
67378;SDS011;54262;44.642;-0.974;2023-09-30T10:16:49;5.47;;;4.82;;
67378;SDS011;54262;44.642;-0.974;2023-09-30T10:19:15;8.52;;;4.75;;
67378;SDS011;54262;44.642;-0.974;2023-09-30T10:24:49;6.35;;;5.15;;
67378;SDS011;54262;44.642;-0.974;2023-09-30T10:29:47;10.05;;;5.25;;
67378;SDS011;54262;44.642;-0.974;2023-09-30T10:32:14;5.18;;;4.35;;
67378;SDS011;54262;44.642;-0.974;2023-09-30T10:34:49;5.32;;;4.82;;
67378;SDS011;54262;44.642;-0.974;2023-09-30T10:37:23;9.02;;;4.22;;
67378;SDS011;54262;44.642;-0.974;2023-09-30T10:39:56;4.53;;;4.13;;
67378;SDS011;54262;44.642;-0.974;2023-09-30T10:50:50;4.65;;;4.20;;
67378;SDS011;54262;44.642;-0.974;2023-09-30T10:53:25;8.70;;;3.78;;
67378;SDS011;54262;44.642;-0.974;2023-09-30T10:55:57;4.57;;;4.15;;
67378;SDS011;54262;44.642;-0.974;2023-09-30T11:01:05;4.68;;;4.13;;
67378;SDS011;54262;44.642;-0.974;2023-09-30T11:03:30;4.68;;;4.20;;
67378;SDS011;54262;44.642;-0.974;2023-09-30T11:05:56;4.65;;;3.88;;
67378;SDS011;54262;44.642;-0.974;2023-09-30T11:08:22;4.60;;;4.20;;
67378;SDS011;54262;44.642;-0.974;2023-09-30T11:10:50;4.53;;;4.13;;
67378;SDS011;54262;44.642;-0.974;2023-09-30T11:13:19;4.32;;;3.95;;
67378;SDS011;54262;44.642;-0.974;2023-09-30T11:15:45;6.05;;;4.05;;
67378;SDS011;54262;44.642;-0.974;2023-09-30T11:18:15;4.43;;;3.70;;
67378;SDS011;54262;44.642;-0.974;2023-09-30T11:20:42;4.82;;;3.60;;
67378;SDS011;54262;44.642;-0.974;2023-09-30T11:23:09;4.20;;;3.40;;
67378;SDS011;54262;44.642;-0.974;2023-09-30T11:25:39;4.63;;;4.22;;
67378;SDS011;54262;44.642;-0.974;2023-09-30T11:28:16;3.92;;;3.53;;
67378;SDS011;54262;44.642;-0.974;2023-09-30T11:30:56;3.90;;;3.60;;
67378;SDS011;54262;44.642;-0.974;2023-09-30T11:33:22;4.80;;;4.30;;
67378;SDS011;54262;44.642;-0.974;2023-09-30T11:36:02;3.80;;;3.50;;
67378;SDS011;54262;44.642;-0.974;2023-09-30T11:38:30;3.63;;;3.33;;
67378;SDS011;54262;44.642;-0.974;2023-09-30T11:40:59;5.25;;;3.90;;
67378;SDS011;54262;44.642;-0.974;2023-09-30T11:43:30;3.95;;;3.60;;
67378;SDS011;54262;44.642;-0.974;2023-09-30T11:46:09;3.53;;;3.22;;
67378;SDS011;54262;44.642;-0.974;2023-09-30T11:48:55;3.28;;;2.97;;
67378;SDS011;54262;44.642;-0.974;2023-09-30T11:51:26;4.38;;;3.97;;
67378;SDS011;54262;44.642;-0.974;2023-09-30T11:53:55;5.07;;;3.88;;
67378;SDS011;54262;44.642;-0.974;2023-09-30T11:56:23;3.40;;;3.10;;
67378;SDS011;54262;44.642;-0.974;2023-09-30T11:58:54;5.22;;;3.40;;
67378;SDS011;54262;44.642;-0.974;2023-09-30T12:01:20;3.80;;;3.47;;
67378;SDS011;54262;44.642;-0.974;2023-09-30T12:03:47;3.00;;;2.70;;
67378;SDS011;54262;44.642;-0.974;2023-09-30T12:06:13;7.10;;;3.60;;
67378;SDS011;54262;44.642;-0.974;2023-09-30T12:08:41;3.97;;;3.13;;
67378;SDS011;54262;44.642;-0.974;2023-09-30T12:11:07;3.88;;;3.58;;
67378;SDS011;54262;44.642;-0.974;2023-09-30T12:13:33;5.13;;;3.40;;
67378;SDS011;54262;44.642;-0.974;2023-09-30T12:15:59;4.40;;;3.75;;
67378;SDS011;54262;44.642;-0.974;2023-09-30T12:18:24;5.22;;;4.05;;
67378;SDS011;54262;44.642;-0.974;2023-09-30T12:20:50;2.72;;;2.53;;
67378;SDS011;54262;44.642;-0.974;2023-09-30T12:23:19;3.22;;;2.92;;
67378;SDS011;54262;44.642;-0.974;2023-09-30T12:25:47;3.67;;;3.38;;
67378;SDS011;54262;44.642;-0.974;2023-09-30T12:28:15;3.78;;;3.47;;
67378;SDS011;54262;44.642;-0.974;2023-09-30T12:30:42;2.80;;;2.60;;
67378;SDS011;54262;44.642;-0.974;2023-09-30T12:33:08;5.32;;;3.20;;
67378;SDS011;54262;44.642;-0.974;2023-09-30T12:35:35;3.67;;;2.75;;
67378;SDS011;54262;44.642;-0.974;2023-09-30T12:38:01;5.00;;;3.38;;
67378;SDS011;54262;44.642;-0.974;2023-09-30T12:40:27;3.17;;;2.97;;
67378;SDS011;54262;44.642;-0.974;2023-09-30T12:42:54;3.67;;;3.40;;
67378;SDS011;54262;44.642;-0.974;2023-09-30T12:45:20;4.20;;;3.78;;
67378;SDS011;54262;44.642;-0.974;2023-09-30T12:47:46;2.97;;;2.78;;
67378;SDS011;54262;44.642;-0.974;2023-09-30T12:50:13;2.80;;;2.60;;
67378;SDS011;54262;44.642;-0.974;2023-09-30T12:52:38;3.40;;;3.00;;
67378;SDS011;54262;44.642;-0.974;2023-09-30T12:55:04;3.50;;;3.20;;
67378;SDS011;54262;44.642;-0.974;2023-09-30T12:57:31;3.22;;;2.97;;
67378;SDS011;54262;44.642;-0.974;2023-09-30T12:59:57;3.92;;;3.63;;
67378;SDS011;54262;44.642;-0.974;2023-09-30T13:02:22;2.92;;;2.72;;
67378;SDS011;54262;44.642;-0.974;2023-09-30T13:04:48;3.65;;;3.35;;
67378;SDS011;54262;44.642;-0.974;2023-09-30T13:07:14;3.58;;;3.28;;
67378;SDS011;54262;44.642;-0.974;2023-09-30T13:09:40;2.72;;;2.53;;
67378;SDS011;54262;44.642;-0.974;2023-09-30T13:12:07;3.30;;;3.00;;
67378;SDS011;54262;44.642;-0.974;2023-09-30T13:14:33;3.08;;;2.88;;
67378;SDS011;54262;44.642;-0.974;2023-09-30T13:16:59;3.00;;;2.67;;
67378;SDS011;54262;44.642;-0.974;2023-09-30T13:19:26;2.78;;;2.58;;
67378;SDS011;54262;44.642;-0.974;2023-09-30T13:21:51;2.70;;;2.50;;
67378;SDS011;54262;44.642;-0.974;2023-09-30T13:24:20;2.63;;;2.42;;
67378;SDS011;54262;44.642;-0.974;2023-09-30T13:26:49;3.08;;;2.83;;
67378;SDS011;54262;44.642;-0.974;2023-09-30T13:29:17;3.60;;;3.00;;
67378;SDS011;54262;44.642;-0.974;2023-09-30T13:31:43;3.10;;;2.80;;
67378;SDS011;54262;44.642;-0.974;2023-09-30T13:34:10;2.75;;;2.55;;
67378;SDS011;54262;44.642;-0.974;2023-09-30T13:36:37;2.33;;;2.20;;
67378;SDS011;54262;44.642;-0.974;2023-09-30T13:39:03;2.70;;;2.50;;
67378;SDS011;54262;44.642;-0.974;2023-09-30T13:41:34;2.65;;;2.50;;
67378;SDS011;54262;44.642;-0.974;2023-09-30T13:44:01;3.00;;;2.80;;
67378;SDS011;54262;44.642;-0.974;2023-09-30T13:46:26;2.90;;;2.67;;
67378;SDS011;54262;44.642;-0.974;2023-09-30T13:48:53;2.72;;;2.53;;
67378;SDS011;54262;44.642;-0.974;2023-09-30T13:51:19;2.55;;;2.35;;
67378;SDS011;54262;44.642;-0.974;2023-09-30T13:53:44;2.95;;;2.75;;
67378;SDS011;54262;44.642;-0.974;2023-09-30T13:56:10;3.33;;;3.05;;
67378;SDS011;54262;44.642;-0.974;2023-09-30T13:58:36;2.58;;;2.38;;
67378;SDS011;54262;44.642;-0.974;2023-09-30T14:01:02;3.33;;;2.45;;
67378;SDS011;54262;44.642;-0.974;2023-09-30T14:03:28;2.78;;;2.58;;
67378;SDS011;54262;44.642;-0.974;2023-09-30T14:05:54;2.58;;;2.38;;
67378;SDS011;54262;44.642;-0.974;2023-09-30T14:08:22;2.97;;;2.78;;
67378;SDS011;54262;44.642;-0.974;2023-09-30T14:10:47;2.40;;;2.20;;
67378;SDS011;54262;44.642;-0.974;2023-09-30T14:13:13;3.00;;;2.80;;
67378;SDS011;54262;44.642;-0.974;2023-09-30T14:15:40;2.75;;;2.55;;
67378;SDS011;54262;44.642;-0.974;2023-09-30T14:18:05;2.47;;;2.30;;
67378;SDS011;54262;44.642;-0.974;2023-09-30T14:20:31;2.45;;;2.25;;
67378;SDS011;54262;44.642;-0.974;2023-09-30T14:22:59;2.15;;;2.05;;
67378;SDS011;54262;44.642;-0.974;2023-09-30T14:25:24;2.55;;;2.35;;
67378;SDS011;54262;44.642;-0.974;2023-09-30T14:27:53;2.67;;;2.47;;
67378;SDS011;54262;44.642;-0.974;2023-09-30T14:30:21;2.20;;;2.10;;
67378;SDS011;54262;44.642;-0.974;2023-09-30T14:32:47;2.63;;;2.42;;
67378;SDS011;54262;44.642;-0.974;2023-09-30T14:35:12;3.28;;;3.00;;
67378;SDS011;54262;44.642;-0.974;2023-09-30T14:37:38;2.70;;;2.50;;
67378;SDS011;54262;44.642;-0.974;2023-09-30T14:40:05;2.50;;;2.30;;
67378;SDS011;54262;44.642;-0.974;2023-09-30T14:42:36;2.10;;;1.98;;
67378;SDS011;54262;44.642;-0.974;2023-09-30T14:45:02;2.60;;;2.40;;
67378;SDS011;54262;44.642;-0.974;2023-09-30T14:47:28;2.72;;;2.55;;
67378;SDS011;54262;44.642;-0.974;2023-09-30T14:49:54;3.17;;;2.97;;